Aleppo, Syria

12:10 PM EEST on September 02, 2014 (GMT +0300)
HATAY AIRPORT | Change Station
CLOSE
Current Station
Airport
Location: HATAY AIRPORT,
Elevation: 269 ft
Nearby Weather Stations

Elev 269 ft 36.36 °N, 36.28 °E | Updated 20 minutes ago

Scattered Clouds
Scattered Clouds
90 °F
Feels Like 96 °F
N
24
Wind Variable Wind from SSW

Today
High -- | Low -- °F
--% Chance of Precip.
Yesterday
High -- | Low -- °F
Precip. -- in
6:03 AM 6:57 PM
Waxing Crescent, 49% visible
Pressure 29.68 in
Visibility 6.2 miles
Clouds Scattered Clouds 3500 ft
Heat Index 96 °F
Dew Point 72 °F
Humidity 55%
Rainfall 0.00 in
Snow Depth Not available.
UV 8 out of 12
Pollen Not available.
Air Quality Not available.
Flu Activity Not available.
METAR LTDA 020850Z 21021KT 9999 SCT035 32/22 Q1005

More Conditions Fewer Conditions

Pressure 29.68 in
Visibility 6.2 miles
Clouds Scattered Clouds 3500 ft
Heat Index 96 °F
Dew Point 72 °F
Humidity 55%
Rainfall 0.00 in
Snow Depth Not available.
UV 8 out of 12
Pollen Not available.
Air Quality Not available.
Flu Activity Not available.
METAR LTDA 020850Z 21021KT 9999 SCT035 32/22 Q1005

More Conditions Fewer Conditions

10-Day Weather Forecast

Almanac

Astronomy

Sep. 02, 2014 Rise Set
Actual Time 6:03 AM EEST 6:57 PM EEST
Civil Twilight 5:36 AM EEST 7:24 PM EEST
Nautical Twilight 5:05 AM EEST 7:55 PM EEST
Astronomical Twilight 4:33 AM EEST 8:27 PM EEST
Moon 1:14 PM EEST 11:45 PM EEST
Length of Visible Light 13h 47m
Length of Day
12h 54m
Tomorrow will be 2m 13s shorter.
Waxing Crescent, 49% of the Moon is Illuminated
Today
Waxing Crescent
Sep 2
First Quarter
Sep 8
Full
Sep 15
Last Quarter
Sep 24
New

Yesterday's Extremes

Country Highs Country Lows

Community

WunderPhotos

Upload Photos

1,749,587 photos uploaded!

WunderBlogs® & News

Nearby

Snow Depth

Not available.

Earthquake Activity

City Distance Mag. Time & Date
No recent earthquake activity has been reported nearby.
Minimum magnitude displayed is 2.5.

Coastal Water Temperatures

Place Temperature
No Stations Reporting

Nearby Weather Stations